Time;durP1;ratioP1;P1;durP2;ratioP2;P2;SDS_P1;SDS_P2;PMS_P1;PMS_P2;Temp;Humidity;BMP_temperature;BMP_pressure;BME280_temperature;BME280_humidity;BME280_pressure;Samples;Min_cycle;Max_cycle;Signal;HPM_P1;HPM_P2
2021/09/29 00:00:09;;;;;;;0.60;0.60;;;;;;;14.61;60.59;99158.38;5150888;27;41918;-85
2021/09/29 00:02:40;;;;;;;0.70;0.70;;;;;;;14.52;60.63;99139.56;5152295;27;43286;-85
2021/09/29 00:05:11;;;;;;;0.87;0.80;;;;;;;14.56;60.69;99139.25;5150291;27;40151;-84
2021/09/29 00:07:38;;;;;;;1.00;0.90;;;;;;;14.64;60.67;99141.31;5150315;27;40540;-85
2021/09/29 00:10:07;;;;;;;0.50;0.50;;;;;;;14.59;60.82;99127.47;5149862;27;42846;-85
2021/09/29 00:12:35;;;;;;;0.83;0.83;;;;;;;14.59;61.05;99128.31;5132642;27;41107;-83
2021/09/29 00:15:09;;;;;;;1.47;1.10;;;;;;;14.63;62.05;99116.47;5133681;27;39153;-85
2021/09/29 00:17:45;;;;;;;1.00;0.83;;;;;;;14.60;62.00;99108.72;5133005;27;41013;-84
2021/09/29 00:20:16;;;;;;;1.10;1.00;;;;;;;14.62;61.68;99112.13;5150517;27;42570;-85
2021/09/29 00:22:45;;;;;;;0.80;0.80;;;;;;;14.72;61.76;99129.13;5150234;27;41185;-85
2021/09/29 00:25:14;;;;;;;1.60;0.90;;;;;;;14.73;62.69;99122.81;5151600;27;39360;-85
2021/09/29 00:27:42;;;;;;;0.87;0.67;;;;;;;14.74;62.32;99127.19;5149864;27;40689;-84
2021/09/29 00:30:12;;;;;;;1.00;1.00;;;;;;;14.67;63.15;99120.63;5149238;27;42085;-84
2021/09/29 00:32:42;;;;;;;0.83;0.83;;;;;;;14.75;62.51;99133.38;5149225;27;41996;-85
2021/09/29 00:35:12;;;;;;;0.90;0.90;;;;;;;14.74;62.05;99129.00;5132674;27;38825;-84
2021/09/29 00:37:41;;;;;;;0.80;0.80;;;;;;;14.71;62.43;99122.09;5150417;27;40923;-84
2021/09/29 00:40:10;;;;;;;0.83;0.83;;;;;;;14.66;62.62;99113.59;5149442;27;43202;-84
2021/09/29 00:42:39;;;;;;;0.63;0.63;;;;;;;14.69;62.83;99128.53;5133403;27;42041;-85
2021/09/29 00:45:08;;;;;;;0.60;0.60;;;;;;;14.67;62.77;99111.78;5132546;27;39168;-84
2021/09/29 00:47:36;;;;;;;0.90;0.90;;;;;;;14.58;62.85;99091.16;5150401;27;40949;-84
2021/09/29 00:50:05;;;;;;;1.23;0.83;;;;;;;14.65;62.75;99101.22;5133137;27;41718;-84
2021/09/29 00:52:33;;;;;;;1.20;0.73;;;;;;;14.71;62.70;99103.41;5150246;27;42367;-84
2021/09/29 00:55:02;;;;;;;0.67;0.67;;;;;;;14.66;62.68;99092.28;5133449;27;38831;-86
2021/09/29 00:57:30;;;;;;;0.50;0.50;;;;;;;14.67;62.47;99093.97;5135729;27;40898;-84
2021/09/29 01:00:05;;;;;;;0.73;0.73;;;;;;;14.67;62.49;99085.97;5153692;27;42784;-84
2021/09/29 01:02:33;;;;;;;0.87;0.77;;;;;;;14.78;62.08;99100.31;5153994;27;41439;-84
2021/09/29 01:05:01;;;;;;;0.70;0.70;;;;;;;14.71;62.34;99079.44;5154618;27;40212;-84
2021/09/29 01:07:38;;;;;;;0.53;0.53;;;;;;;14.72;62.36;99075.78;5152772;27;40566;-84
2021/09/29 01:10:15;;;;;;;1.23;0.83;;;;;;;14.73;61.98;99082.84;5135591;27;42039;-85
2021/09/29 01:12:50;;;;;;;0.90;0.83;;;;;;;14.83;62.66;99092.81;5154701;27;42624;-85
2021/09/29 01:15:26;;;;;;;0.70;0.70;;;;;;;14.77;62.62;99087.94;5152333;27;38798;-84
2021/09/29 01:17:57;;;;;;;2.17;0.87;;;;;;;14.88;62.80;99085.31;5153496;27;42739;-85
2021/09/29 01:20:29;;;;;;;0.80;0.80;;;;;;;14.90;62.73;99073.56;5152371;27;41946;-84
2021/09/29 01:23:12;;;;;;;0.70;0.70;;;;;;;14.94;62.64;99084.84;5136049;27;41737;-84
2021/09/29 01:25:50;;;;;;;0.77;0.77;;;;;;;14.94;63.05;99075.03;5135000;27;39033;-84
2021/09/29 01:28:21;;;;;;;0.93;0.73;;;;;;;14.97;63.06;99073.91;5153241;27;41955;-85
2021/09/29 01:30:49;;;;;;;1.30;1.00;;;;;;;15.00;63.34;99068.34;5152691;27;42722;-84
2021/09/29 01:33:18;;;;;;;0.80;0.80;;;;;;;14.92;63.54;99046.78;5134817;27;41248;-85
2021/09/29 01:35:46;;;;;;;0.90;0.87;;;;;;;14.82;63.32;99032.47;5151820;27;40206;-85
2021/09/29 01:38:19;;;;;;;1.10;0.90;;;;;;;14.94;63.16;99056.38;5153058;27;40975;-85
2021/09/29 01:40:47;;;;;;;1.00;0.90;;;;;;;15.03;63.44;99062.78;5135482;27;43402;-85
2021/09/29 01:43:15;;;;;;;0.80;0.80;;;;;;;14.96;63.16;99045.59;5152747;27;41513;-85
2021/09/29 01:45:46;;;;;;;1.10;0.93;;;;;;;15.09;63.27;99075.63;5152957;27;40246;-86
2021/09/29 01:48:13;;;;;;;1.10;1.00;;;;;;;15.00;63.14;99063.88;5153066;27;41944;-85
2021/09/29 01:50:42;;;;;;;0.90;0.90;;;;;;;15.05;63.08;99077.72;5151956;27;42718;-85
2021/09/29 01:53:11;;;;;;;1.10;0.93;;;;;;;15.10;63.24;99080.00;5152154;27;40942;-85
2021/09/29 01:55:39;;;;;;;1.10;0.97;;;;;;;15.03;63.30;99081.47;5135357;27;39674;-84
2021/09/29 01:58:07;;;;;;;0.80;0.80;;;;;;;15.06;63.18;99091.91;5152865;27;40933;-85
2021/09/29 02:00:35;;;;;;;1.13;0.90;;;;;;;15.03;63.47;99078.81;5135854;27;42733;-85
2021/09/29 02:03:04;;;;;;;0.87;0.87;;;;;;;15.03;63.46;99079.66;5153337;27;41564;-84
2021/09/29 02:05:33;;;;;;;1.20;0.90;;;;;;;15.05;63.44;99071.53;5135540;27;41014;-85
2021/09/29 02:08:08;;;;;;;1.17;1.00;;;;;;;15.12;63.65;99094.09;5152773;27;41654;-84
2021/09/29 02:10:36;;;;;;;1.27;0.90;;;;;;;15.12;63.41;99082.56;5151999;27;41851;-84
2021/09/29 02:13:04;;;;;;;0.90;0.90;;;;;;;15.10;63.70;99077.34;5135188;27;41535;-85
2021/09/29 02:15:39;;;;;;;1.30;1.20;;;;;;;15.14;63.91;99067.28;5135001;27;38817;-85
2021/09/29 02:18:08;;;;;;;0.90;0.90;;;;;;;15.09;64.29;99065.81;5169810;27;41721;-84
2021/09/29 02:20:35;;;;;;;3.10;0.93;;;;;;;15.14;64.06;99070.81;5134265;27;42007;-85
2021/09/29 02:23:03;;;;;;;2.30;1.27;;;;;;;15.07;64.17;99053.59;5151700;27;42617;-84
2021/09/29 02:25:31;;;;;;;1.07;0.90;;;;;;;15.17;64.07;99069.72;5151439;27;40193;-85
2021/09/29 02:27:58;;;;;;;1.30;1.00;;;;;;;15.08;64.16;99048.13;5152417;27;40649;-84
2021/09/29 02:30:29;;;;;;;3.03;1.20;;;;;;;15.18;64.29;99061.59;5151442;27;43005;-84
2021/09/29 02:32:57;;;;;;;1.33;0.93;;;;;;;15.10;64.17;99048.84;5151116;27;41263;-84
2021/09/29 02:35:26;;;;;;;1.30;1.20;;;;;;;15.10;64.04;99037.34;5169566;27;39934;-84
2021/09/29 02:37:53;;;;;;;0.73;0.73;;;;;;;15.15;63.73;99045.84;5169079;27;42046;-84
2021/09/29 02:40:22;;;;;;;0.83;0.83;;;;;;;15.17;64.30;99043.91;5151359;27;43121;-85
2021/09/29 02:42:50;;;;;;;1.00;1.00;;;;;;;15.27;64.09;99060.03;5150839;27;41036;-85
2021/09/29 02:45:17;;;;;;;1.23;1.00;;;;;;;15.19;63.72;99041.97;5153002;27;39789;-85
2021/09/29 02:47:45;;;;;;;0.80;0.80;;;;;;;15.26;63.57;99043.16;5133712;27;41211;-85
2021/09/29 02:50:12;;;;;;;1.60;0.90;;;;;;;15.14;63.90;99030.78;5133809;27;41834;-85
2021/09/29 02:52:42;;;;;;;1.13;0.83;;;;;;;15.20;63.80;99043.66;5132581;27;41573;-84
2021/09/29 02:55:09;;;;;;;1.30;1.00;;;;;;;15.31;63.82;99062.34;5151063;27;40442;-85
2021/09/29 02:57:37;;;;;;;1.00;1.00;;;;;;;15.24;64.00;99053.09;5134835;27;40686;-86
2021/09/29 03:00:06;;;;;;;1.07;0.97;;;;;;;15.29;64.05;99064.28;5133959;27;42087;-86
2021/09/29 03:02:33;;;;;;;1.57;1.20;;;;;;;15.17;64.79;99049.22;5169505;27;43030;-85
2021/09/29 03:05:01;;;;;;;1.47;1.00;;;;;;;15.19;64.10;99057.97;5169166;27;39756;-85
2021/09/29 03:07:28;;;;;;;1.20;1.07;;;;;;;15.29;64.27;99071.44;5133628;27;42145;-85
2021/09/29 03:09:57;;;;;;;1.37;1.27;;;;;;;15.23;64.45;99054.06;5168639;27;43256;-85
2021/09/29 03:12:25;;;;;;;1.60;0.93;;;;;;;15.31;64.07;99062.34;5168050;27;42088;-84
2021/09/29 03:14:52;;;;;;;1.87;1.30;;;;;;;15.32;63.98;99064.06;5151168;27;38949;-85
2021/09/29 03:17:20;;;;;;;0.90;0.90;;;;;;;15.31;63.99;99051.69;5150333;27;41044;-85
2021/09/29 03:19:47;;;;;;;1.10;1.00;;;;;;;15.23;63.96;99032.72;5133282;27;41745;-85
2021/09/29 03:22:15;;;;;;;1.00;0.80;;;;;;;15.27;64.07;99044.88;5150132;27;42519;-85
2021/09/29 03:24:42;;;;;;;1.03;1.03;;;;;;;15.22;63.93;99024.84;5150724;27;39742;-85
2021/09/29 03:27:11;;;;;;;0.87;0.87;;;;;;;15.24;64.68;99022.91;5133235;27;40683;-85
2021/09/29 03:29:39;;;;;;;1.10;1.00;;;;;;;15.31;64.64;99034.81;5133576;27;42856;-85
2021/09/29 03:32:07;;;;;;;1.17;1.07;;;;;;;15.26;64.04;99016.50;5150792;27;42445;-85
2021/09/29 03:34:35;;;;;;;1.23;1.20;;;;;;;15.25;64.23;99017.47;5133084;27;39291;-85
2021/09/29 03:37:03;;;;;;;1.10;1.00;;;;;;;15.29;64.68;99031.41;5133241;27;41250;-85
2021/09/29 03:39:30;;;;;;;0.93;0.90;;;;;;;15.38;64.70;99042.19;5131872;27;42806;-85
2021/09/29 03:41:58;;;;;;;1.97;1.37;;;;;;;15.33;64.32;99032.88;5149122;27;41355;-85
2021/09/29 03:44:27;;;;;;;1.70;1.03;;;;;;;15.41;64.51;99047.31;5132889;27;39844;-86
2021/09/29 03:46:55;;;;;;;1.10;1.10;;;;;;;15.30;64.53;99028.63;5133061;27;40997;-85
2021/09/29 03:49:22;;;;;;;1.20;1.10;;;;;;;15.10;64.52;98994.66;5132911;27;42119;-85
2021/09/29 03:51:50;;;;;;;1.40;1.30;;;;;;;15.25;64.87;99020.13;5133891;27;42478;-85
2021/09/29 03:54:17;;;;;;;1.30;1.20;;;;;;;15.35;64.49;99031.75;5133156;27;40272;-85
2021/09/29 03:56:51;;;;;;;0.97;0.90;;;;;;;15.37;64.80;99034.31;5133073;27;40764;-85
2021/09/29 03:59:19;;;;;;;1.40;1.30;;;;;;;15.29;64.66;99031.41;5115714;27;42043;-85
2021/09/29 04:01:48;;;;;;;1.50;1.40;;;;;;;15.44;64.65;99049.75;5150466;27;41286;-85
2021/09/29 04:04:15;;;;;;;1.33;1.23;;;;;;;15.38;64.96;99042.19;5149082;27;39067;-84
2021/09/29 04:06:43;;;;;;;1.43;1.33;;;;;;;15.42;64.68;99038.34;5150362;27;42734;-84
2021/09/29 04:09:10;;;;;;;1.47;1.37;;;;;;;15.39;65.11;99035.91;5149862;27;42464;-85
2021/09/29 04:11:39;;;;;;;1.70;1.60;;;;;;;15.37;65.43;99032.50;5150867;27;41877;-84
2021/09/29 04:14:06;;;;;;;2.67;1.60;;;;;;;15.35;65.60;99034.44;5149082;27;39120;-85
2021/09/29 04:16:34;;;;;;;2.27;1.63;;;;;;;15.41;65.39;99039.28;5132474;27;40641;-85
2021/09/29 04:19:05;;;;;;;1.73;1.63;;;;;;;15.43;65.59;99058.72;5149605;27;41526;-85
2021/09/29 04:21:33;;;;;;;2.43;1.73;;;;;;;15.45;65.39;99054.06;5168025;27;42175;-85
2021/09/29 04:24:02;;;;;;;3.40;1.90;;;;;;;15.48;65.40;99054.81;5132581;27;39637;-85
2021/09/29 04:26:29;;;;;;;1.27;1.17;;;;;;;15.37;65.06;99023.63;5131741;27;42102;-84
2021/09/29 04:28:57;;;;;;;1.90;1.30;;;;;;;15.49;65.01;99048.50;5148833;27;41648;-85
2021/09/29 04:31:25;;;;;;;1.97;1.17;;;;;;;15.43;65.16;99045.38;5149882;27;42565;-85
2021/09/29 04:33:53;;;;;;;1.40;1.30;;;;;;;15.38;65.00;99036.88;5152605;27;38849;-85
2021/09/29 04:36:21;;;;;;;1.10;1.00;;;;;;;15.40;65.00;99042.94;5134393;27;41696;-85
2021/09/29 04:38:49;;;;;;;1.37;1.27;;;;;;;15.43;65.25;99039.19;5148969;27;42955;-86
2021/09/29 04:41:16;;;;;;;2.10;1.40;;;;;;;15.38;65.12;99030.69;5153174;27;41310;-85
2021/09/29 04:43:44;;;;;;;1.40;1.20;;;;;;;15.38;65.14;99026.19;5153459;27;40742;-85
2021/09/29 04:46:12;;;;;;;2.00;1.80;;;;;;;15.40;65.10;99040.25;5153540;27;41475;-84
2021/09/29 04:48:42;;;;;;;1.63;1.53;;;;;;;15.39;65.50;99027.88;5135262;27;43825;-86
2021/09/29 04:51:10;;;;;;;4.57;2.03;;;;;;;15.34;65.08;99029.22;5149522;27;41449;-83
2021/09/29 04:53:39;;;;;;;2.03;1.40;;;;;;;15.39;65.27;99038.56;5153533;27;40397;-83
2021/09/29 04:56:09;;;;;;;1.67;1.30;;;;;;;15.31;65.60;99017.00;5152575;27;40552;-85
2021/09/29 04:58:37;;;;;;;1.97;1.40;;;;;;;15.38;65.47;99042.19;5151869;27;42832;-85
2021/09/29 05:01:04;;;;;;;1.73;1.23;;;;;;;15.30;65.22;99025.13;5135494;27;41293;-85
2021/09/29 05:03:33;;;;;;;2.77;1.23;;;;;;;15.30;65.13;99023.28;5135626;27;39007;-84
2021/09/29 05:06:01;;;;;;;1.93;1.53;;;;;;;15.37;65.44;99040.50;5153183;27;41970;-84
2021/09/29 05:08:34;;;;;;;3.70;1.97;;;;;;;15.14;65.59;99014.78;5153001;27;42891;-85
2021/09/29 05:11:05;;;;;;;2.10;1.93;;;;;;;15.30;66.36;99041.13;5153150;27;43239;-83
2021/09/29 05:13:34;;;;;;;2.20;1.50;;;;;;;15.23;66.47;99037.22;5135738;27;38869;-82
2021/09/29 05:16:07;;;;;;;1.70;1.60;;;;;;;15.02;66.66;99023.75;5135832;27;40634;-84
2021/09/29 05:18:35;;;;;;;4.43;1.60;;;;;;;14.84;66.75;98994.03;5135046;27;41652;-84
2021/09/29 05:21:03;;;;;;;3.43;1.50;;;;;;;15.17;66.81;99059.91;5135380;27;42469;-83
2021/09/29 05:23:52;;;;;;;1.40;1.30;;;;;;;15.11;66.85;99047.03;5134662;27;38820;-83
2021/09/29 05:26:21;;;;;;;1.43;1.33;;;;;;;15.16;66.86;99058.22;5130705;27;40786;-84
2021/09/29 05:28:51;;;;;;;2.43;1.63;;;;;;;15.20;66.57;99053.50;5131456;27;41734;-83
2021/09/29 05:34:01;;;;;;;2.07;1.60;;;;;;;15.28;66.76;99062.59;5130904;27;38904;-84
2021/09/29 05:36:29;;;;;;;2.60;1.97;;;;;;;15.40;66.40;99061.63;5131737;27;41966;-83
2021/09/29 05:38:57;;;;;;;1.83;1.47;;;;;;;15.31;66.62;99054.34;5133236;27;42664;-84
2021/09/29 05:41:26;;;;;;;1.70;1.60;;;;;;;15.36;66.28;99060.16;5095540;27;41381;-83
2021/09/29 05:43:53;;;;;;;1.73;1.43;;;;;;;15.50;66.19;99079.56;5130922;27;39057;-83
2021/09/29 05:46:21;;;;;;;2.10;1.67;;;;;;;15.29;65.90;99042.94;5133235;27;40682;-83
2021/09/29 05:48:48;;;;;;;1.90;1.70;;;;;;;15.44;65.76;99063.09;5132618;27;41971;-83
2021/09/29 05:51:16;;;;;;;1.63;1.53;;;;;;;15.53;65.59;99077.50;5134162;27;41091;-84
2021/09/29 05:53:43;;;;;;;1.93;1.70;;;;;;;15.56;65.56;99076.47;5135576;27;39488;-83
2021/09/29 05:56:13;;;;;;;2.97;2.27;;;;;;;15.47;65.49;99061.97;5151757;27;40842;-83
2021/09/29 05:58:42;;;;;;;1.60;1.50;;;;;;;15.62;65.65;99086.63;5135264;27;41731;-83
2021/09/29 06:01:10;;;;;;;2.53;1.90;;;;;;;15.65;65.54;99086.41;5151951;27;42585;-82
2021/09/29 06:03:37;;;;;;;2.00;1.83;;;;;;;15.53;65.18;99076.66;5152330;27;38933;-83
2021/09/29 06:06:05;;;;;;;4.80;2.20;;;;;;;15.51;65.14;99078.59;5135247;27;41066;-84
2021/09/29 06:08:33;;;;;;;2.07;1.63;;;;;;;15.58;65.35;99091.34;5153041;27;41913;-85
2021/09/29 06:11:00;;;;;;;2.23;1.43;;;;;;;15.49;65.41;99091.22;5151640;27;41294;-84
2021/09/29 06:13:28;;;;;;;2.30;1.83;;;;;;;15.48;65.29;99098.38;5151518;27;39146;-84
2021/09/29 06:15:57;;;;;;;2.30;1.70;;;;;;;15.54;65.13;99086.38;5167395;27;41756;-84
2021/09/29 06:18:24;;;;;;;2.23;1.80;;;;;;;15.56;65.04;99084.47;5134615;27;43097;-84
2021/09/29 06:20:54;;;;;;;2.10;1.50;;;;;;;15.68;64.88;99107.53;5134732;27;41057;-83
2021/09/29 06:23:22;;;;;;;1.77;1.47;;;;;;;15.71;64.72;99101.91;5134270;27;40304;-84
2021/09/29 06:25:50;;;;;;;2.00;1.53;;;;;;;15.76;64.32;99105.09;5151788;27;41723;-84
2021/09/29 06:28:17;;;;;;;2.70;2.10;;;;;;;15.87;64.21;99107.75;5152917;27;42853;-85
2021/09/29 06:30:45;;;;;;;2.10;1.90;;;;;;;15.96;64.22;99101.66;5134612;27;41472;-84
2021/09/29 06:33:16;;;;;;;2.43;1.77;;;;;;;16.06;63.90;99091.09;5173402;27;39827;-83
2021/09/29 06:35:43;;;;;;;1.80;1.70;;;;;;;16.27;63.34;99109.88;5195163;27;42753;-83
2021/09/29 06:38:11;;;;;;;2.23;1.63;;;;;;;16.29;62.94;99102.56;5177880;27;42661;-85
2021/09/29 06:40:38;;;;;;;1.80;1.60;;;;;;;16.43;62.27;99113.84;5152208;27;42291;-82
2021/09/29 06:43:06;;;;;;;1.93;1.70;;;;;;;16.34;62.27;99111.03;5170931;27;39923;-83
2021/09/29 06:45:34;;;;;;;1.70;1.57;;;;;;;16.29;62.31;99107.91;5168167;27;42147;-85
2021/09/29 06:48:02;;;;;;;2.37;1.70;;;;;;;16.28;62.61;99127.59;5156749;27;41802;-81
2021/09/29 06:50:31;;;;;;;2.47;1.90;;;;;;;16.19;62.67;99118.50;5152142;27;42146;-82
2021/09/29 06:52:59;;;;;;;2.07;1.50;;;;;;;15.99;62.66;99108.56;5155695;27;40550;-80
2021/09/29 06:55:26;;;;;;;3.20;1.90;;;;;;;15.99;63.05;99122.78;5158206;27;41988;-81
2021/09/29 06:57:54;;;;;;;2.13;1.90;;;;;;;15.93;63.05;99123.28;5152223;27;42597;-82
2021/09/29 07:00:22;;;;;;;2.93;1.80;;;;;;;15.98;63.21;99130.91;5149980;27;42282;-80
2021/09/29 07:02:55;;;;;;;1.80;1.70;;;;;;;16.01;63.00;99130.69;5132804;27;39195;-80
2021/09/29 07:05:24;;;;;;;1.73;1.30;;;;;;;16.05;62.74;99135.66;5133110;27;40845;-82
2021/09/29 07:07:53;;;;;;;1.40;1.30;;;;;;;16.06;63.16;99129.34;5152031;27;43460;-80
2021/09/29 07:10:22;;;;;;;2.33;1.97;;;;;;;16.09;62.94;99129.06;5149940;27;43049;-81
2021/09/29 07:12:50;;;;;;;2.03;1.43;;;;;;;16.13;62.87;99125.19;5151590;27;40303;-80
2021/09/29 07:15:17;;;;;;;1.97;1.50;;;;;;;16.16;62.89;99130.28;5133411;27;41001;-79
2021/09/29 07:17:45;;;;;;;1.33;1.23;;;;;;;16.12;62.79;99119.97;5133420;27;41893;-89
2021/09/29 07:20:12;;;;;;;1.77;1.60;;;;;;;16.30;62.59;99131.00;5150674;27;42359;-81
2021/09/29 07:22:42;;;;;;;3.13;2.23;;;;;;;17.09;60.95;99141.28;5132279;27;38835;-87
2021/09/29 07:25:12;;;;;;;1.37;1.20;;;;;;;19.32;56.73;99159.75;5132675;27;41013;-78
2021/09/29 07:27:47;;;;;;;1.97;1.30;;;;;;;20.05;53.27;99175.13;5150036;27;43318;-82
2021/09/29 07:30:15;;;;;;;1.10;1.00;;;;;;;19.64;53.32;99173.75;5167258;27;42323;-83
2021/09/29 07:32:45;;;;;;;1.70;1.60;;;;;;;19.47;53.91;99170.91;5133223;27;39157;-80
2021/09/29 07:35:13;;;;;;;1.20;1.10;;;;;;;19.45;52.69;99186.31;5149950;27;41970;-84
2021/09/29 07:37:41;;;;;;;1.83;1.50;;;;;;;19.96;51.46;99184.09;5149873;27;42999;-85
2021/09/29 07:40:09;;;;;;;2.77;1.00;;;;;;;20.23;49.89;99185.97;5167488;27;43176;-82
2021/09/29 07:42:39;;;;;;;1.10;1.03;;;;;;;20.18;49.97;99201.69;5149521;27;40928;-84
2021/09/29 07:45:08;;;;;;;0.93;0.83;;;;;;;20.15;50.73;99191.25;5149570;27;40858;-87
2021/09/29 07:47:36;;;;;;;1.03;0.93;;;;;;;20.20;50.41;99167.44;5136460;27;42110;-86
2021/09/29 07:50:07;;;;;;;4.53;2.27;;;;;;;20.48;50.00;99192.53;5135867;27;41177;-88
2021/09/29 07:52:35;;;;;;;3.33;1.97;;;;;;;20.44;49.27;99185.75;5137393;27;39593;-90
2021/09/29 07:55:03;;;;;;;1.03;1.00;;;;;;;20.19;49.66;99171.13;5133453;27;41993;-83
2021/09/29 07:57:31;;;;;;;1.20;1.07;;;;;;;20.19;49.88;99202.53;5149194;27;45804;-83
2021/09/29 08:00:00;;;;;;;1.27;1.07;;;;;;;19.99;50.75;99197.25;5149776;27;42604;-83
2021/09/29 08:02:31;;;;;;;0.93;0.83;;;;;;;19.84;50.87;99170.97;5148599;27;41030;-80
2021/09/29 08:05:01;;;;;;;1.57;0.80;;;;;;;19.82;50.96;99167.59;5149337;27;41799;-82
2021/09/29 08:07:29;;;;;;;0.90;0.90;;;;;;;20.02;50.79;99185.38;5149719;27;43748;-81
2021/09/29 08:09:57;;;;;;;0.83;0.83;;;;;;;20.69;49.50;99190.41;5149474;27;42052;-82
2021/09/29 08:12:25;;;;;;;0.80;0.80;;;;;;;22.04;47.42;99204.53;5166612;27;39765;-81
2021/09/29 08:14:53;;;;;;;0.83;0.83;;;;;;;22.88;46.04;99218.06;5149430;27;41580;-82
2021/09/29 08:17:22;;;;;;;1.00;0.73;;;;;;;24.65;43.17;99213.50;5148948;27;41893;-84
2021/09/29 08:19:49;;;;;;;1.17;1.07;;;;;;;25.46;39.79;99233.03;5148818;27;41257;-82
2021/09/29 08:22:17;;;;;;;1.70;0.80;;;;;;;25.56;40.13;99233.59;5132828;27;39858;-83
2021/09/29 08:24:52;;;;;;;0.67;0.67;;;;;;;26.88;38.16;99251.91;5131484;27;41869;-84
2021/09/29 08:27:26;;;;;;;1.10;0.70;;;;;;;28.84;34.90;99265.59;5131513;27;41716;-85
2021/09/29 08:30:12;;;;;;;1.90;1.10;;;;;;;31.13;31.15;99281.44;5165854;27;43337;-86
2021/09/29 08:32:46;;;;;;;0.70;0.70;;;;;;;32.93;28.77;99285.25;5129776;27;39915;-87
2021/09/29 08:35:25;;;;;;;0.70;0.70;;;;;;;33.87;27.27;99282.72;5110709;27;40507;-80
2021/09/29 08:37:58;;;;;;;1.05;0.95;;;;;;;34.40;26.51;99290.06;5129664;27;42834;-80
2021/09/29 08:40:29;;;;;;;0.63;0.63;;;;;;;34.83;25.92;99283.34;5141169;27;41126;-86
2021/09/29 08:45:48;;;;;;;0.95;0.60;;;;;;;35.40;25.13;99289.78;5128864;27;40667;-87
2021/09/29 08:48:31;;;;;;;0.65;0.65;;;;;;;35.21;24.70;99286.38;5131597;27;41559;-88
2021/09/29 08:54:01;;;;;;;0.70;0.70;;;;;;;34.51;25.77;99269.97;5146636;27;40436;-88
2021/09/29 09:16:09;;;;;;;0.60;0.60;;;;;;;29.62;29.03;99236.03;5134989;27;39014;-85
2021/09/29 09:18:47;;;;;;;0.60;0.60;;;;;;;28.76;30.11;99243.94;5113396;27;41599;-84
2021/09/29 09:21:18;;;;;;;1.77;0.87;;;;;;;27.95;31.89;99228.31;5113771;27;41786;-82
2021/09/29 09:23:46;;;;;;;1.60;0.93;;;;;;;27.47;33.06;99220.78;5185534;27;42722;-87
2021/09/29 09:26:16;;;;;;;0.77;0.50;;;;;;;27.13;33.89;99223.38;5151038;27;39117;-81
2021/09/29 09:28:45;;;;;;;0.50;0.50;;;;;;;26.83;34.64;99215.25;5153693;27;41744;-82
2021/09/29 09:31:15;;;;;;;0.50;0.50;;;;;;;26.32;35.17;99197.28;5151609;27;43137;-85
2021/09/29 09:33:52;;;;;;;1.57;0.70;;;;;;;26.01;36.34;99187.41;5152378;27;41364;-88
2021/09/29 09:36:33;;;;;;;1.17;0.97;;;;;;;25.62;36.94;99154.22;5134212;27;38839;-92
2021/09/29 09:39:04;;;;;;;0.80;0.60;;;;;;;25.70;37.20;99186.72;5135355;27;40531;-88
2021/09/29 09:41:32;;;;;;;2.07;0.90;;;;;;;25.65;37.25;99186.41;5147002;27;42939;-89
2021/09/29 09:44:03;;;;;;;0.83;0.50;;;;;;;25.51;36.77;99184.47;5130815;27;41067;-87
2021/09/29 09:46:31;;;;;;;0.70;0.70;;;;;;;25.17;37.38;99168.66;5149844;27;39114;-85
2021/09/29 09:49:01;;;;;;;0.60;0.60;;;;;;;24.81;38.17;99149.44;5134792;27;40575;-81
2021/09/29 09:51:33;;;;;;;1.30;0.93;;;;;;;24.52;38.92;99159.06;5151044;27;41797;-80
2021/09/29 09:54:01;;;;;;;0.47;0.47;;;;;;;24.55;39.11;99177.69;5151519;27;41528;-77
2021/09/29 09:56:31;;;;;;;0.80;0.50;;;;;;;24.60;38.50;99175.25;5132920;27;39084;-82
2021/09/29 09:58:59;;;;;;;1.63;0.70;;;;;;;24.67;37.99;99172.69;5150147;27;40957;-78
2021/09/29 10:01:30;;;;;;;0.77;0.60;;;;;;;24.88;37.75;99174.75;5145779;27;41955;-83
2021/09/29 10:04:09;;;;;;;0.90;0.70;;;;;;;25.18;37.29;99182.06;5152129;27;41577;-86
2021/09/29 10:06:39;;;;;;;0.67;0.50;;;;;;;25.35;36.96;99175.44;5151636;27;40254;-87
2021/09/29 10:09:21;;;;;;;0.80;0.40;;;;;;;25.50;36.91;99163.81;5151198;27;40596;-84
2021/09/29 10:11:59;;;;;;;0.73;0.73;;;;;;;25.52;36.95;99153.63;5151606;27;43055;-83
2021/09/29 10:23:12;;;;;;;1.00;0.70;;;;;;;25.93;35.31;99171.22;5148112;27;43790;-80
2021/09/29 10:26:09;;;;;;;0.80;0.50;;;;;;;26.51;34.01;99183.09;5150285;27;43376;-83
2021/09/29 10:28:40;;;;;;;1.27;0.60;;;;;;;26.15;34.21;99191.16;5150893;27;38917;-86
2021/09/29 10:33:56;;;;;;;0.67;0.60;;;;;;;25.26;35.50;99173.84;5131286;27;41883;-86
2021/09/29 10:36:43;;;;;;;0.63;0.63;;;;;;;24.58;36.41;99152.94;5150728;27;43336;-80
2021/09/29 10:42:25;;;;;;;0.67;0.60;;;;;;;23.65;38.34;99160.00;5133020;27;42106;-83
2021/09/29 10:48:17;;;;;;;0.53;0.53;;;;;;;24.02;38.43;99145.03;5167966;27;41514;-84
2021/09/29 11:29:49;;;;;;;0.30;0.30;;;;;;;27.40;34.61;99164.63;5130283;27;41584;-83
2021/09/29 11:32:26;;;;;;;0.60;0.60;;;;;;;26.87;35.22;99171.41;5151285;27;41394;-86
2021/09/29 11:34:59;;;;;;;1.30;0.50;;;;;;;26.43;35.21;99156.06;5129245;27;39893;-84
2021/09/29 12:08:40;;;;;;;1.33;0.57;;;;;;;28.65;30.41;99137.38;5134542;27;39138;-86
2021/09/29 12:11:13;;;;;;;0.93;0.50;;;;;;;27.81;32.34;99134.84;5147969;27;41811;-83
2021/09/29 12:13:45;;;;;;;0.60;0.50;;;;;;;27.71;32.11;99124.28;5166226;27;43939;-81
2021/09/29 12:16:13;;;;;;;0.63;0.43;;;;;;;27.88;31.90;99136.56;5130787;27;42992;-83
2021/09/29 12:18:57;;;;;;;0.63;0.43;;;;;;;28.12;32.04;99132.50;5131747;27;40060;-85
2021/09/29 12:21:35;;;;;;;0.50;0.50;;;;;;;27.62;31.98;99140.97;5130134;27;41578;-81
2021/09/29 12:24:03;;;;;;;0.57;0.40;;;;;;;26.62;33.69;99128.28;5131326;27;43052;-81
2021/09/29 12:26:40;;;;;;;0.60;0.60;;;;;;;25.85;34.53;99119.72;5147085;27;41539;-82
2021/09/29 12:29:18;;;;;;;0.70;0.30;;;;;;;25.38;35.81;99112.72;5132002;27;38954;-82
2021/09/29 12:34:32;;;;;;;0.40;0.40;;;;;;;25.04;36.43;99107.78;5126622;27;43084;-83
2021/09/29 12:37:10;;;;;;;0.30;0.30;;;;;;;24.97;36.51;99089.75;5148573;27;41103;-89
2021/09/29 12:39:40;;;;;;;1.37;0.37;;;;;;;25.39;35.94;99092.72;5132167;27;39012;-83
2021/09/29 12:42:10;;;;;;;0.30;0.30;;;;;;;25.42;35.49;99108.63;5148202;27;40814;-81
2021/09/29 12:44:52;;;;;;;1.27;0.30;;;;;;;25.26;36.25;99110.66;5139020;27;43911;-82
2021/09/29 12:47:27;;;;;;;0.83;0.33;;;;;;;25.15;36.16;99071.28;5148911;27;43210;-83
2021/09/29 12:49:56;;;;;;;0.40;0.40;;;;;;;25.19;36.35;99091.56;5131465;27;39220;-87
2021/09/29 12:52:27;;;;;;;1.40;0.70;;;;;;;24.88;36.57;99077.22;5133008;27;40908;-89
2021/09/29 12:54:56;;;;;;;0.30;0.30;;;;;;;24.49;37.25;99075.47;5135618;27;43115;-88
2021/09/29 12:57:27;;;;;;;0.63;0.40;;;;;;;24.18;37.77;99071.91;5134766;27;41600;-89
2021/09/29 12:59:55;;;;;;;0.30;0.30;;;;;;;24.06;38.01;99078.75;5135395;27;38784;-90
2021/09/29 13:02:23;;;;;;;1.40;0.67;;;;;;;23.99;37.97;99056.94;5135986;27;40944;-88
2021/09/29 13:04:51;;;;;;;0.37;0.30;;;;;;;24.29;37.68;99082.38;5151699;27;42870;-89
2021/09/29 13:07:20;;;;;;;0.23;0.23;;;;;;;24.20;38.40;99086.13;5135195;27;41979;-88
2021/09/29 13:09:48;;;;;;;0.77;0.53;;;;;;;23.85;38.53;99066.66;5152947;27;39932;-87
2021/09/29 13:12:16;;;;;;;0.60;0.33;;;;;;;23.54;40.92;99082.81;5148448;27;42076;-87
2021/09/29 13:14:44;;;;;;;0.53;0.40;;;;;;;22.84;43.07;99062.78;5135401;27;43510;-88
2021/09/29 13:17:11;;;;;;;0.40;0.40;;;;;;;22.53;45.54;99066.06;5135054;27;41361;-85
2021/09/29 13:19:45;;;;;;;1.60;0.40;;;;;;;23.36;44.42;99055.13;5135425;27;39861;-87
2021/09/29 13:22:20;;;;;;;0.30;0.30;;;;;;;24.85;41.09;99069.47;5134297;27;40509;-82
2021/09/29 13:24:59;;;;;;;0.60;0.60;;;;;;;27.10;37.37;99120.44;5150834;27;42044;-88
2021/09/29 13:35:06;;;;;;;0.40;0.40;;;;;;;27.33;36.23;99137.38;5147197;27;41054;-83
2021/09/29 13:38:48;;;;;;;0.30;0.30;;;;;;;22.64;42.47;99161.25;5134798;27;41117;-87
2021/09/29 13:41:17;;;;;;;0.20;0.20;;;;;;;21.50;46.24;99145.38;5130235;27;39154;-80
2021/09/29 13:43:47;;;;;;;1.20;0.20;;;;;;;20.69;47.36;99138.41;5152342;27;40978;-82
2021/09/29 13:46:15;;;;;;;0.20;0.20;;;;;;;20.10;48.71;99129.00;5150621;27;42776;-81
2021/09/29 13:48:42;;;;;;;0.20;0.20;;;;;;;19.62;50.29;99124.66;5168776;27;43228;-82
2021/09/29 13:51:10;;;;;;;0.30;0.30;;;;;;;19.18;51.07;99103.81;5151157;27;40172;-84
2021/09/29 13:53:38;;;;;;;0.20;0.20;;;;;;;19.20;51.48;99112.56;5168439;27;41375;-80